sensor_id;sensor_type;location;lat;lon;timestamp;P1;durP1;ratioP1;P2;durP2;ratioP2
47603;SDS011;33326;51.116;6.900;2023-01-26T00:17:50;91.30;;;35.08;;
47603;SDS011;33326;51.116;6.900;2023-01-26T00:29:37;94.75;;;36.45;;
47603;SDS011;33326;51.116;6.900;2023-01-26T00:34:46;90.90;;;37.05;;
47603;SDS011;33326;51.116;6.900;2023-01-26T00:40:39;100.10;;;38.00;;
47603;SDS011;33326;51.116;6.900;2023-01-26T00:46:02;93.22;;;37.13;;
47603;SDS011;33326;51.116;6.900;2023-01-26T00:56:45;98.43;;;38.60;;
47603;SDS011;33326;51.116;6.900;2023-01-26T01:02:26;96.25;;;38.55;;
47603;SDS011;33326;51.116;6.900;2023-01-26T01:08:16;95.93;;;38.22;;
47603;SDS011;33326;51.116;6.900;2023-01-26T01:13:23;95.43;;;37.50;;
47603;SDS011;33326;51.116;6.900;2023-01-26T01:50:37;103.47;;;37.90;;
47603;SDS011;33326;51.116;6.900;2023-01-26T02:02:17;102.00;;;38.53;;
47603;SDS011;33326;51.116;6.900;2023-01-26T02:08:51;104.97;;;39.10;;
47603;SDS011;33326;51.116;6.900;2023-01-26T02:14:35;93.47;;;36.47;;
47603;SDS011;33326;51.116;6.900;2023-01-26T02:19:47;97.55;;;38.20;;
47603;SDS011;33326;51.116;6.900;2023-01-26T02:25:01;106.80;;;38.40;;
47603;SDS011;33326;51.116;6.900;2023-01-26T02:30:23;105.88;;;39.10;;
47603;SDS011;33326;51.116;6.900;2023-01-26T02:35:27;106.25;;;38.42;;
47603;SDS011;33326;51.116;6.900;2023-01-26T02:40:35;101.13;;;40.00;;
47603;SDS011;33326;51.116;6.900;2023-01-26T02:51:22;110.43;;;37.28;;
47603;SDS011;33326;51.116;6.900;2023-01-26T02:56:26;99.05;;;35.30;;
47603;SDS011;33326;51.116;6.900;2023-01-26T03:07:42;102.28;;;36.97;;
47603;SDS011;33326;51.116;6.900;2023-01-26T03:12:45;102.15;;;35.97;;
47603;SDS011;33326;51.116;6.900;2023-01-26T03:17:59;103.97;;;35.75;;
47603;SDS011;33326;51.116;6.900;2023-01-26T03:23:26;109.13;;;34.97;;
47603;SDS011;33326;51.116;6.900;2023-01-26T03:28:57;99.70;;;33.85;;
47603;SDS011;33326;51.116;6.900;2023-01-26T03:34:00;105.40;;;34.80;;
47603;SDS011;33326;51.116;6.900;2023-01-26T03:39:06;95.18;;;32.70;;
47603;SDS011;33326;51.116;6.900;2023-01-26T03:44:08;105.30;;;33.13;;
47603;SDS011;33326;51.116;6.900;2023-01-26T03:49:30;111.57;;;35.08;;
47603;SDS011;33326;51.116;6.900;2023-01-26T03:54:51;109.13;;;37.03;;
47603;SDS011;33326;51.116;6.900;2023-01-26T04:00:10;107.90;;;34.38;;
47603;SDS011;33326;51.116;6.900;2023-01-26T04:05:14;94.95;;;32.78;;
47603;SDS011;33326;51.116;6.900;2023-01-26T04:10:39;102.65;;;33.88;;
47603;SDS011;33326;51.116;6.900;2023-01-26T04:15:41;100.93;;;33.72;;
47603;SDS011;33326;51.116;6.900;2023-01-26T04:21:01;102.57;;;33.72;;
47603;SDS011;33326;51.116;6.900;2023-01-26T04:26:23;103.38;;;33.78;;
47603;SDS011;33326;51.116;6.900;2023-01-26T04:31:26;103.50;;;33.15;;
47603;SDS011;33326;51.116;6.900;2023-01-26T04:36:28;98.95;;;32.90;;
47603;SDS011;33326;51.116;6.900;2023-01-26T04:41:32;95.57;;;32.85;;
47603;SDS011;33326;51.116;6.900;2023-01-26T04:46:39;93.68;;;30.80;;
47603;SDS011;33326;51.116;6.900;2023-01-26T04:51:41;99.22;;;32.25;;
47603;SDS011;33326;51.116;6.900;2023-01-26T04:56:45;101.13;;;33.25;;
47603;SDS011;33326;51.116;6.900;2023-01-26T05:01:47;98.18;;;31.73;;
47603;SDS011;33326;51.116;6.900;2023-01-26T05:06:49;96.57;;;32.03;;
47603;SDS011;33326;51.116;6.900;2023-01-26T05:11:53;90.13;;;30.90;;
47603;SDS011;33326;51.116;6.900;2023-01-26T05:17:46;86.80;;;28.98;;
47603;SDS011;33326;51.116;6.900;2023-01-26T05:23:08;86.95;;;30.02;;
47603;SDS011;33326;51.116;6.900;2023-01-26T05:28:30;84.90;;;29.48;;
47603;SDS011;33326;51.116;6.900;2023-01-26T05:33:32;87.32;;;30.45;;
47603;SDS011;33326;51.116;6.900;2023-01-26T05:38:35;86.65;;;28.80;;
47603;SDS011;33326;51.116;6.900;2023-01-26T05:43:38;85.85;;;29.55;;
47603;SDS011;33326;51.116;6.900;2023-01-26T05:48:43;94.82;;;31.73;;
47603;SDS011;33326;51.116;6.900;2023-01-26T05:53:45;94.15;;;31.52;;
47603;SDS011;33326;51.116;6.900;2023-01-26T05:58:49;105.07;;;32.70;;
47603;SDS011;33326;51.116;6.900;2023-01-26T06:03:52;93.80;;;32.97;;
47603;SDS011;33326;51.116;6.900;2023-01-26T06:08:55;100.07;;;34.17;;
47603;SDS011;33326;51.116;6.900;2023-01-26T06:14:08;96.70;;;32.13;;
47603;SDS011;33326;51.116;6.900;2023-01-26T06:19:11;103.75;;;33.03;;
47603;SDS011;33326;51.116;6.900;2023-01-26T06:24:15;103.00;;;34.55;;
47603;SDS011;33326;51.116;6.900;2023-01-26T06:35:09;92.30;;;32.45;;
47603;SDS011;33326;51.116;6.900;2023-01-26T06:40:13;93.47;;;32.00;;
47603;SDS011;33326;51.116;6.900;2023-01-26T06:45:18;92.85;;;31.95;;
47603;SDS011;33326;51.116;6.900;2023-01-26T06:50:22;89.75;;;30.05;;
47603;SDS011;33326;51.116;6.900;2023-01-26T06:55:28;80.18;;;28.38;;
47603;SDS011;33326;51.116;6.900;2023-01-26T07:01:09;78.30;;;26.80;;
47603;SDS011;33326;51.116;6.900;2023-01-26T07:06:15;75.72;;;26.63;;
47603;SDS011;33326;51.116;6.900;2023-01-26T07:11:17;79.88;;;28.42;;
47603;SDS011;33326;51.116;6.900;2023-01-26T07:16:21;73.22;;;25.55;;
47603;SDS011;33326;51.116;6.900;2023-01-26T07:21:23;67.53;;;25.38;;
47603;SDS011;33326;51.116;6.900;2023-01-26T07:26:27;75.75;;;25.83;;
47603;SDS011;33326;51.116;6.900;2023-01-26T07:31:30;67.07;;;25.15;;
47603;SDS011;33326;51.116;6.900;2023-01-26T07:36:32;74.63;;;27.17;;
47603;SDS011;33326;51.116;6.900;2023-01-26T07:41:34;69.10;;;25.55;;
47603;SDS011;33326;51.116;6.900;2023-01-26T07:52:10;73.43;;;28.97;;
47603;SDS011;33326;51.116;6.900;2023-01-26T07:57:12;75.03;;;27.98;;
47603;SDS011;33326;51.116;6.900;2023-01-26T08:02:16;75.22;;;27.67;;
47603;SDS011;33326;51.116;6.900;2023-01-26T08:07:18;78.68;;;26.40;;
47603;SDS011;33326;51.116;6.900;2023-01-26T08:12:20;77.97;;;27.02;;
47603;SDS011;33326;51.116;6.900;2023-01-26T08:17:23;83.03;;;26.73;;
47603;SDS011;33326;51.116;6.900;2023-01-26T08:22:25;92.82;;;29.60;;
47603;SDS011;33326;51.116;6.900;2023-01-26T08:27:27;78.63;;;27.63;;
47603;SDS011;33326;51.116;6.900;2023-01-26T08:32:30;80.65;;;27.27;;
47603;SDS011;33326;51.116;6.900;2023-01-26T08:37:32;83.18;;;29.13;;
47603;SDS011;33326;51.116;6.900;2023-01-26T08:42:34;92.90;;;30.23;;
47603;SDS011;33326;51.116;6.900;2023-01-26T08:47:38;86.03;;;31.00;;
47603;SDS011;33326;51.116;6.900;2023-01-26T08:52:40;86.60;;;30.77;;
47603;SDS011;33326;51.116;6.900;2023-01-26T08:57:42;88.82;;;32.17;;
47603;SDS011;33326;51.116;6.900;2023-01-26T09:02:47;93.18;;;31.45;;
47603;SDS011;33326;51.116;6.900;2023-01-26T09:07:49;98.18;;;33.33;;
47603;SDS011;33326;51.116;6.900;2023-01-26T09:12:51;91.53;;;32.15;;
47603;SDS011;33326;51.116;6.900;2023-01-26T09:17:55;92.80;;;31.15;;
47603;SDS011;33326;51.116;6.900;2023-01-26T09:22:57;95.57;;;32.22;;
47603;SDS011;33326;51.116;6.900;2023-01-26T09:28:00;89.18;;;33.42;;
47603;SDS011;33326;51.116;6.900;2023-01-26T09:33:07;95.10;;;32.08;;
47603;SDS011;33326;51.116;6.900;2023-01-26T09:38:09;95.60;;;33.08;;
47603;SDS011;33326;51.116;6.900;2023-01-26T09:43:18;94.18;;;33.15;;
47603;SDS011;33326;51.116;6.900;2023-01-26T09:48:36;90.53;;;30.27;;
47603;SDS011;33326;51.116;6.900;2023-01-26T09:53:51;90.78;;;31.30;;
47603;SDS011;33326;51.116;6.900;2023-01-26T09:59:01;80.40;;;29.55;;
47603;SDS011;33326;51.116;6.900;2023-01-26T10:04:12;75.95;;;28.13;;
47603;SDS011;33326;51.116;6.900;2023-01-26T10:09:23;74.40;;;26.52;;
47603;SDS011;33326;51.116;6.900;2023-01-26T10:14:28;76.18;;;28.52;;
47603;SDS011;33326;51.116;6.900;2023-01-26T10:19:39;71.80;;;28.33;;
47603;SDS011;33326;51.116;6.900;2023-01-26T10:24:44;78.32;;;30.15;;
47603;SDS011;33326;51.116;6.900;2023-01-26T10:29:49;87.03;;;30.13;;
47603;SDS011;33326;51.116;6.900;2023-01-26T10:34:54;85.55;;;29.15;;
47603;SDS011;33326;51.116;6.900;2023-01-26T10:39:59;88.85;;;30.67;;
47603;SDS011;33326;51.116;6.900;2023-01-26T10:45:05;89.95;;;29.95;;
47603;SDS011;33326;51.116;6.900;2023-01-26T10:50:26;81.40;;;29.77;;
47603;SDS011;33326;51.116;6.900;2023-01-26T10:55:31;87.68;;;31.38;;
47603;SDS011;33326;51.116;6.900;2023-01-26T11:00:42;85.03;;;29.65;;
47603;SDS011;33326;51.116;6.900;2023-01-26T11:05:45;89.07;;;30.95;;
47603;SDS011;33326;51.116;6.900;2023-01-26T11:11:20;90.50;;;31.58;;
47603;SDS011;33326;51.116;6.900;2023-01-26T11:16:25;89.55;;;31.55;;
47603;SDS011;33326;51.116;6.900;2023-01-26T11:21:31;91.68;;;29.65;;
47603;SDS011;33326;51.116;6.900;2023-01-26T11:26:51;88.40;;;30.85;;
47603;SDS011;33326;51.116;6.900;2023-01-26T11:32:16;85.90;;;29.73;;
47603;SDS011;33326;51.116;6.900;2023-01-26T11:42:49;79.68;;;28.48;;
47603;SDS011;33326;51.116;6.900;2023-01-26T11:48:07;80.78;;;28.95;;
47603;SDS011;33326;51.116;6.900;2023-01-26T11:53:29;79.50;;;28.00;;
47603;SDS011;33326;51.116;6.900;2023-01-26T11:58:57;82.78;;;29.65;;
47603;SDS011;33326;51.116;6.900;2023-01-26T12:04:04;84.32;;;29.60;;
47603;SDS011;33326;51.116;6.900;2023-01-26T12:14:35;71.07;;;28.13;;
47603;SDS011;33326;51.116;6.900;2023-01-26T12:19:44;65.47;;;25.42;;
47603;SDS011;33326;51.116;6.900;2023-01-26T12:24:56;62.72;;;24.08;;
47603;SDS011;33326;51.116;6.900;2023-01-26T12:30:10;65.20;;;25.58;;
47603;SDS011;33326;51.116;6.900;2023-01-26T12:35:28;57.05;;;23.65;;
47603;SDS011;33326;51.116;6.900;2023-01-26T12:40:46;59.28;;;24.67;;
47603;SDS011;33326;51.116;6.900;2023-01-26T12:45:58;56.47;;;24.48;;
47603;SDS011;33326;51.116;6.900;2023-01-26T12:51:03;57.63;;;24.08;;
47603;SDS011;33326;51.116;6.900;2023-01-26T12:56:12;51.10;;;21.05;;
47603;SDS011;33326;51.116;6.900;2023-01-26T13:01:21;49.25;;;19.98;;
47603;SDS011;33326;51.116;6.900;2023-01-26T13:06:25;48.97;;;20.95;;
47603;SDS011;33326;51.116;6.900;2023-01-26T13:11:43;47.30;;;20.05;;
47603;SDS011;33326;51.116;6.900;2023-01-26T13:16:48;43.67;;;19.13;;
47603;SDS011;33326;51.116;6.900;2023-01-26T13:21:50;39.85;;;17.52;;
47603;SDS011;33326;51.116;6.900;2023-01-26T13:26:55;38.67;;;17.20;;
47603;SDS011;33326;51.116;6.900;2023-01-26T13:31:58;43.65;;;19.55;;
47603;SDS011;33326;51.116;6.900;2023-01-26T13:37:03;42.97;;;19.25;;
47603;SDS011;33326;51.116;6.900;2023-01-26T13:42:18;39.70;;;18.77;;
47603;SDS011;33326;51.116;6.900;2023-01-26T13:47:25;40.38;;;19.52;;
47603;SDS011;33326;51.116;6.900;2023-01-26T13:52:32;45.35;;;20.90;;
47603;SDS011;33326;51.116;6.900;2023-01-26T13:57:43;37.05;;;17.95;;
47603;SDS011;33326;51.116;6.900;2023-01-26T14:02:48;31.42;;;17.00;;
47603;SDS011;33326;51.116;6.900;2023-01-26T14:07:51;33.05;;;16.80;;
47603;SDS011;33326;51.116;6.900;2023-01-26T14:13:02;29.13;;;15.02;;
47603;SDS011;33326;51.116;6.900;2023-01-26T14:18:04;30.05;;;15.85;;
47603;SDS011;33326;51.116;6.900;2023-01-26T14:23:12;29.13;;;15.32;;
47603;SDS011;33326;51.116;6.900;2023-01-26T14:28:19;38.28;;;18.75;;
47603;SDS011;33326;51.116;6.900;2023-01-26T14:33:23;35.35;;;19.40;;
47603;SDS011;33326;51.116;6.900;2023-01-26T14:38:25;41.10;;;20.13;;
47603;SDS011;33326;51.116;6.900;2023-01-26T14:43:29;40.55;;;20.63;;
47603;SDS011;33326;51.116;6.900;2023-01-26T14:48:32;44.25;;;21.13;;
47603;SDS011;33326;51.116;6.900;2023-01-26T14:53:37;46.70;;;22.13;;
47603;SDS011;33326;51.116;6.900;2023-01-26T14:58:41;55.67;;;23.75;;
47603;SDS011;33326;51.116;6.900;2023-01-26T15:03:43;53.45;;;24.63;;
47603;SDS011;33326;51.116;6.900;2023-01-26T15:08:55;56.28;;;25.65;;
47603;SDS011;33326;51.116;6.900;2023-01-26T15:14:01;62.67;;;24.98;;
47603;SDS011;33326;51.116;6.900;2023-01-26T15:19:04;49.80;;;22.88;;
47603;SDS011;33326;51.116;6.900;2023-01-26T15:24:08;55.95;;;22.70;;
47603;SDS011;33326;51.116;6.900;2023-01-26T15:29:19;56.08;;;21.95;;
47603;SDS011;33326;51.116;6.900;2023-01-26T15:34:27;59.50;;;22.85;;
47603;SDS011;33326;51.116;6.900;2023-01-26T15:39:30;71.25;;;24.23;;
47603;SDS011;33326;51.116;6.900;2023-01-26T15:44:34;82.18;;;25.38;;
47603;SDS011;33326;51.116;6.900;2023-01-26T15:49:36;64.13;;;26.25;;
47603;SDS011;33326;51.116;6.900;2023-01-26T15:54:42;68.65;;;25.00;;
47603;SDS011;33326;51.116;6.900;2023-01-26T15:59:45;74.03;;;24.75;;
47603;SDS011;33326;51.116;6.900;2023-01-26T16:04:47;78.65;;;25.60;;
47603;SDS011;33326;51.116;6.900;2023-01-26T16:09:49;65.30;;;24.15;;
47603;SDS011;33326;51.116;6.900;2023-01-26T16:14:52;72.00;;;25.50;;
47603;SDS011;33326;51.116;6.900;2023-01-26T16:19:54;63.33;;;24.02;;
47603;SDS011;33326;51.116;6.900;2023-01-26T16:24:56;93.70;;;27.75;;
47603;SDS011;33326;51.116;6.900;2023-01-26T16:29:59;85.85;;;27.10;;
47603;SDS011;33326;51.116;6.900;2023-01-26T16:35:01;88.18;;;26.40;;
47603;SDS011;33326;51.116;6.900;2023-01-26T16:40:09;86.22;;;26.83;;
47603;SDS011;33326;51.116;6.900;2023-01-26T16:45:15;97.88;;;27.98;;
47603;SDS011;33326;51.116;6.900;2023-01-26T16:50:18;98.03;;;27.85;;
47603;SDS011;33326;51.116;6.900;2023-01-26T16:55:20;91.68;;;27.88;;
47603;SDS011;33326;51.116;6.900;2023-01-26T17:00:24;93.20;;;27.17;;
47603;SDS011;33326;51.116;6.900;2023-01-26T17:05:25;108.43;;;29.77;;
47603;SDS011;33326;51.116;6.900;2023-01-26T17:10:27;126.78;;;31.58;;
47603;SDS011;33326;51.116;6.900;2023-01-26T17:15:30;126.65;;;31.00;;
47603;SDS011;33326;51.116;6.900;2023-01-26T17:20:32;99.45;;;29.75;;
47603;SDS011;33326;51.116;6.900;2023-01-26T17:25:34;100.97;;;28.98;;
47603;SDS011;33326;51.116;6.900;2023-01-26T17:30:37;111.25;;;30.60;;
47603;SDS011;33326;51.116;6.900;2023-01-26T17:35:39;108.88;;;29.67;;
47603;SDS011;33326;51.116;6.900;2023-01-26T17:40:41;113.75;;;31.73;;
47603;SDS011;33326;51.116;6.900;2023-01-26T17:45:44;98.03;;;28.52;;
47603;SDS011;33326;51.116;6.900;2023-01-26T17:50:46;89.93;;;26.80;;
47603;SDS011;33326;51.116;6.900;2023-01-26T17:55:48;87.43;;;28.40;;
47603;SDS011;33326;51.116;6.900;2023-01-26T18:00:51;92.07;;;29.23;;
47603;SDS011;33326;51.116;6.900;2023-01-26T18:05:54;94.07;;;27.85;;
47603;SDS011;33326;51.116;6.900;2023-01-26T18:10:57;113.35;;;31.13;;
47603;SDS011;33326;51.116;6.900;2023-01-26T18:16:00;85.95;;;27.02;;
47603;SDS011;33326;51.116;6.900;2023-01-26T18:21:11;97.22;;;28.77;;
47603;SDS011;33326;51.116;6.900;2023-01-26T18:26:16;99.25;;;28.40;;
47603;SDS011;33326;51.116;6.900;2023-01-26T18:31:21;126.03;;;32.85;;
47603;SDS011;33326;51.116;6.900;2023-01-26T18:36:24;94.22;;;31.33;;
47603;SDS011;33326;51.116;6.900;2023-01-26T18:41:27;101.72;;;33.25;;
47603;SDS011;33326;51.116;6.900;2023-01-26T18:46:32;114.70;;;37.28;;
47603;SDS011;33326;51.116;6.900;2023-01-26T18:51:34;118.40;;;37.47;;
47603;SDS011;33326;51.116;6.900;2023-01-26T18:56:36;105.72;;;35.58;;
47603;SDS011;33326;51.116;6.900;2023-01-26T19:01:39;102.45;;;34.88;;
47603;SDS011;33326;51.116;6.900;2023-01-26T19:06:42;94.45;;;33.58;;
47603;SDS011;33326;51.116;6.900;2023-01-26T19:11:44;116.80;;;36.05;;
47603;SDS011;33326;51.116;6.900;2023-01-26T19:16:47;111.07;;;35.72;;
47603;SDS011;33326;51.116;6.900;2023-01-26T19:21:49;105.93;;;33.63;;
47603;SDS011;33326;51.116;6.900;2023-01-26T19:26:51;103.28;;;33.38;;
47603;SDS011;33326;51.116;6.900;2023-01-26T19:31:55;103.53;;;33.10;;
47603;SDS011;33326;51.116;6.900;2023-01-26T19:36:56;123.38;;;35.45;;
47603;SDS011;33326;51.116;6.900;2023-01-26T19:41:59;109.75;;;36.20;;
47603;SDS011;33326;51.116;6.900;2023-01-26T19:47:02;125.07;;;37.92;;
47603;SDS011;33326;51.116;6.900;2023-01-26T19:52:04;115.15;;;36.40;;
47603;SDS011;33326;51.116;6.900;2023-01-26T19:57:06;143.75;;;38.50;;
47603;SDS011;33326;51.116;6.900;2023-01-26T20:02:49;143.57;;;35.65;;
47603;SDS011;33326;51.116;6.900;2023-01-26T20:07:52;158.20;;;35.97;;
47603;SDS011;33326;51.116;6.900;2023-01-26T20:12:54;145.43;;;35.30;;
47603;SDS011;33326;51.116;6.900;2023-01-26T20:29:32;97.90;;;30.25;;
47603;SDS011;33326;51.116;6.900;2023-01-26T20:34:35;93.43;;;29.05;;
47603;SDS011;33326;51.116;6.900;2023-01-26T20:39:38;128.05;;;34.95;;
47603;SDS011;33326;51.116;6.900;2023-01-26T20:44:41;119.13;;;32.63;;
47603;SDS011;33326;51.116;6.900;2023-01-26T20:49:44;147.82;;;34.45;;
47603;SDS011;33326;51.116;6.900;2023-01-26T20:54:46;133.90;;;34.90;;
47603;SDS011;33326;51.116;6.900;2023-01-26T20:59:50;139.68;;;35.17;;
47603;SDS011;33326;51.116;6.900;2023-01-26T21:04:53;158.98;;;37.15;;
47603;SDS011;33326;51.116;6.900;2023-01-26T21:09:55;136.55;;;34.10;;
47603;SDS011;33326;51.116;6.900;2023-01-26T21:14:58;133.60;;;35.13;;
47603;SDS011;33326;51.116;6.900;2023-01-26T21:20:00;124.70;;;32.88;;
47603;SDS011;33326;51.116;6.900;2023-01-26T21:25:02;130.57;;;32.72;;
47603;SDS011;33326;51.116;6.900;2023-01-26T21:30:06;150.48;;;35.72;;
47603;SDS011;33326;51.116;6.900;2023-01-26T21:35:09;115.75;;;32.33;;
47603;SDS011;33326;51.116;6.900;2023-01-26T21:40:13;121.03;;;32.63;;
47603;SDS011;33326;51.116;6.900;2023-01-26T21:45:16;112.45;;;30.60;;
47603;SDS011;33326;51.116;6.900;2023-01-26T21:55:54;105.45;;;31.88;;
47603;SDS011;33326;51.116;6.900;2023-01-26T22:01:04;113.20;;;34.60;;
47603;SDS011;33326;51.116;6.900;2023-01-26T22:06:06;96.20;;;31.37;;
47603;SDS011;33326;51.116;6.900;2023-01-26T22:11:08;95.35;;;29.45;;
47603;SDS011;33326;51.116;6.900;2023-01-26T22:16:14;88.75;;;29.27;;
47603;SDS011;33326;51.116;6.900;2023-01-26T22:21:17;93.75;;;31.13;;
47603;SDS011;33326;51.116;6.900;2023-01-26T22:26:20;96.07;;;29.63;;
47603;SDS011;33326;51.116;6.900;2023-01-26T22:31:24;75.35;;;26.45;;
47603;SDS011;33326;51.116;6.900;2023-01-26T22:36:27;77.97;;;27.67;;
47603;SDS011;33326;51.116;6.900;2023-01-26T22:41:29;89.72;;;29.15;;
47603;SDS011;33326;51.116;6.900;2023-01-26T22:46:32;76.65;;;27.33;;
47603;SDS011;33326;51.116;6.900;2023-01-26T22:51:34;74.85;;;25.10;;
47603;SDS011;33326;51.116;6.900;2023-01-26T22:56:37;64.35;;;22.35;;
47603;SDS011;33326;51.116;6.900;2023-01-26T23:01:40;52.78;;;20.17;;
47603;SDS011;33326;51.116;6.900;2023-01-26T23:06:42;47.58;;;19.70;;
47603;SDS011;33326;51.116;6.900;2023-01-26T23:11:44;53.15;;;20.50;;
47603;SDS011;33326;51.116;6.900;2023-01-26T23:16:47;50.88;;;20.23;;
47603;SDS011;33326;51.116;6.900;2023-01-26T23:21:48;56.47;;;18.25;;
47603;SDS011;33326;51.116;6.900;2023-01-26T23:26:50;40.58;;;15.77;;
47603;SDS011;33326;51.116;6.900;2023-01-26T23:31:54;39.88;;;13.85;;
47603;SDS011;33326;51.116;6.900;2023-01-26T23:36:56;33.97;;;13.43;;
47603;SDS011;33326;51.116;6.900;2023-01-26T23:41:57;40.15;;;12.77;;
47603;SDS011;33326;51.116;6.900;2023-01-26T23:47:01;32.72;;;11.85;;
47603;SDS011;33326;51.116;6.900;2023-01-26T23:52:03;30.60;;;11.68;;
47603;SDS011;33326;51.116;6.900;2023-01-26T23:57:05;31.42;;;11.73;;
